Aviation Digital Data Service (ADDS)

Output produced by METARs form (1039 UTC 18 June 2019)
found at http://www.aviationweather.gov/metar/data/
 
Forecast for: RJOC (IZUMO AIRPORT , JP)
Text: TAF RJOC 180512Z 1806/1912 25015KT 9999 FEW030
Forecast period: 0600 UTC 18 June 2019 to 0300 UTC 19 June 2019
Forecast type: FROM: standard forecast or significant change
Winds: from the WSW (250 degrees) at 17 MPH (15 knots; 7.7 m/s)
Visibility: 6 or more miles 10+ km)
Ceiling: at least 12,000 feet AGL
Clouds: few clouds at 3000 feet AGL
Weather: no significant weather forecast for this period
Text: BECMG 1903/1906 04007KT
Forecast period: 0300 to 1200 UTC 19 June 2019
Forecast type: BECOMING: Conditions expected to become as follows by 0600 UTC 19 June 2019
Winds: from the NE (40 degrees) at 8 MPH (7 knots; 3.6 m/s)
Visibility: 6 or more miles 10+ km)
Ceiling: at least 12,000 feet AGL
Clouds: few clouds at 3000 feet AGL
Weather: no significant weather forecast for this period